Time;durP1;ratioP1;P1;durP2;ratioP2;P2;SDS_P1;SDS_P2;PMS_P1;PMS_P2;Temp;Humidity;BMP_temperature;BMP_pressure;BME280_temperature;BME280_humidity;BME280_pressure;Samples;Min_cycle;Max_cycle;Signal;HPM_P1;HPM_P2
2023/04/29 00:02:11;;;;;;;8.43;7.27;;;15.10;99.90;;;;;;5011590;28;21008;-73
2023/04/29 00:04:37;;;;;;;9.30;7.80;;;15.10;99.90;;;;;;5012085;28;21209;-74
2023/04/29 00:07:03;;;;;;;8.23;6.70;;;15.10;99.90;;;;;;5022644;28;20224;-74
2023/04/29 00:09:29;;;;;;;11.33;9.23;;;15.10;99.90;;;;;;5030553;28;20180;-74
2023/04/29 00:11:54;;;;;;;10.77;8.70;;;15.10;99.90;;;;;;5031416;28;20580;-74
2023/04/29 00:14:20;;;;;;;11.90;8.70;;;15.00;99.90;;;;;;5031607;28;20201;-74
2023/04/29 00:16:46;;;;;;;11.47;8.97;;;15.00;99.90;;;;;;5030791;28;20224;-74
2023/04/29 00:19:12;;;;;;;10.60;8.13;;;15.00;99.90;;;;;;5031719;28;20271;-74
2023/04/29 00:21:38;;;;;;;12.17;8.80;;;15.00;99.90;;;;;;5019795;28;20308;-74
2023/04/29 00:24:04;;;;;;;10.67;9.10;;;14.90;99.90;;;;;;5011962;28;20668;-74
2023/04/29 00:26:29;;;;;;;13.20;8.20;;;14.90;99.90;;;;;;5010098;28;20177;-75
2023/04/29 00:28:55;;;;;;;9.47;8.47;;;14.90;99.90;;;;;;5009979;28;21187;-75
2023/04/29 00:31:24;;;;;;;10.60;8.13;;;14.90;99.90;;;;;;5010487;28;20174;-74
2023/04/29 00:33:49;;;;;;;11.43;9.10;;;14.90;99.90;;;;;;5010112;28;20602;-74
2023/04/29 00:36:15;;;;;;;8.60;7.70;;;14.90;99.90;;;;;;4993964;28;20628;-74
2023/04/29 00:38:43;;;;;;;11.07;9.03;;;14.90;99.90;;;;;;5009787;28;20213;-75
2023/04/29 00:41:09;;;;;;;11.07;9.80;;;14.90;99.90;;;;;;5010309;28;20261;-74
2023/04/29 00:43:35;;;;;;;11.07;8.63;;;14.90;99.90;;;;;;4977403;28;20565;-74
2023/04/29 00:46:01;;;;;;;11.10;8.07;;;14.90;99.90;;;;;;5011280;28;20592;-74
2023/04/29 00:48:27;;;;;;;11.27;8.20;;;14.90;99.90;;;;;;5011034;28;20232;-75
2023/04/29 00:50:52;;;;;;;9.83;8.00;;;14.80;99.90;;;;;;5009827;28;20543;-74
2023/04/29 00:53:19;;;;;;;10.37;8.40;;;14.80;99.90;;;;;;5010095;28;20178;-74
2023/04/29 00:55:47;;;;;;;8.23;6.73;;;14.80;99.90;;;;;;4993037;28;20577;-74
2023/04/29 00:58:16;;;;;;;8.77;7.63;;;14.80;99.90;;;;;;5011238;28;20740;-74
2023/04/29 01:00:43;;;;;;;8.87;7.13;;;14.80;99.90;;;;;;5010935;28;20593;-74
2023/04/29 01:03:12;;;;;;;9.30;7.70;;;14.80;99.90;;;;;;5008730;28;20950;-74
2023/04/29 01:06:00;;;;;;;9.77;7.28;;;14.80;99.90;;;;;;5013794;28;20941;-74
2023/04/29 01:08:45;;;;;;;10.63;8.80;;;14.80;99.90;;;;;;5001058;28;20208;-74
2023/04/29 01:11:13;;;;;;;11.07;8.57;;;14.80;99.90;;;;;;5009703;28;20584;-74
2023/04/29 01:13:48;;;;;;;9.83;8.20;;;14.80;99.90;;;;;;4975241;28;20598;-74
2023/04/29 01:16:33;;;;;;;12.37;9.33;;;14.80;99.90;;;;;;5010411;28;20604;-74
2023/04/29 01:19:14;;;;;;;12.17;8.27;;;14.80;99.90;;;;;;5007857;28;20669;-74
2023/04/29 01:21:47;;;;;;;12.33;9.17;;;14.80;99.90;;;;;;4996605;28;20589;-74
2023/04/29 01:24:24;;;;;;;14.13;11.63;;;14.70;99.90;;;;;;5014763;28;20583;-74
2023/04/29 01:27:09;;;;;;;13.13;9.97;;;14.70;99.90;;;;;;5014700;28;20670;-74
2023/04/29 01:30:32;;;;;;;11.70;9.60;;;14.70;99.90;;;;;;4998843;28;20602;-74
2023/04/29 01:33:28;;;;;;;14.73;10.85;;;14.70;99.90;;;;;;4977741;28;20948;-74
2023/04/29 01:36:31;;;;;;;13.40;11.03;;;14.70;99.90;;;;;;4977541;28;20198;-74
2023/04/29 01:39:25;;;;;;;16.43;11.83;;;14.60;99.90;;;;;;4977314;28;20732;-74
2023/04/29 01:42:13;;;;;;;11.77;10.10;;;14.60;99.90;;;;;;4977305;28;20577;-74
2023/04/29 01:44:41;;;;;;;15.87;12.40;;;14.70;99.90;;;;;;4993878;28;20578;-74
2023/04/29 01:47:09;;;;;;;18.90;12.90;;;14.60;99.90;;;;;;4998511;28;20623;-74
2023/04/29 01:49:41;;;;;;;15.17;12.83;;;14.60;99.90;;;;;;5013099;28;20639;-74
2023/04/29 01:52:07;;;;;;;15.00;11.87;;;14.60;99.90;;;;;;4997295;28;20581;-74
2023/04/29 01:54:35;;;;;;;20.70;16.10;;;14.60;99.90;;;;;;4996346;28;20186;-74
2023/04/29 01:57:04;;;;;;;18.90;14.93;;;14.60;99.90;;;;;;4996534;28;21148;-74
2023/04/29 01:59:48;;;;;;;23.70;18.60;;;14.50;99.90;;;;;;4998923;28;20569;-74
2023/04/29 02:02:32;;;;;;;25.47;20.27;;;14.50;99.90;;;;;;5014995;28;20672;-77
2023/04/29 02:05:08;;;;;;;24.37;19.87;;;14.50;99.90;;;;;;4996411;28;20923;-77
2023/04/29 02:07:38;;;;;;;23.60;20.40;;;14.50;99.90;;;;;;4996311;28;20613;-76
2023/04/29 02:10:05;;;;;;;22.73;18.30;;;14.40;99.90;;;;;;4996072;28;20806;-76
2023/04/29 02:12:38;;;;;;;23.27;17.73;;;14.40;99.90;;;;;;5012682;28;20597;-77
2023/04/29 02:15:06;;;;;;;21.30;18.37;;;14.30;99.90;;;;;;5012329;28;20617;-76
2023/04/29 02:17:33;;;;;;;21.85;16.77;;;14.30;99.90;;;;;;5011602;28;20675;-76
2023/04/29 02:19:59;;;;;;;24.50;19.60;;;14.30;99.90;;;;;;4996047;28;20229;-77
2023/04/29 02:22:25;;;;;;;29.33;21.90;;;14.30;99.90;;;;;;5011981;28;20640;-77
2023/04/29 02:24:54;;;;;;;26.03;20.50;;;14.30;99.90;;;;;;4995994;28;20162;-77
2023/04/29 02:27:22;;;;;;;24.03;20.50;;;14.20;99.90;;;;;;5013282;28;20708;-77
2023/04/29 02:29:48;;;;;;;23.80;20.27;;;14.20;99.90;;;;;;5012512;28;20269;-76
2023/04/29 02:32:14;;;;;;;24.13;20.40;;;14.20;99.90;;;;;;4995580;28;20684;-77
2023/04/29 02:34:40;;;;;;;23.57;19.60;;;14.20;99.90;;;;;;4996112;28;20631;-76
2023/04/29 02:37:06;;;;;;;27.13;22.40;;;14.20;99.90;;;;;;4995193;28;21003;-76
2023/04/29 02:39:32;;;;;;;26.47;21.77;;;14.20;99.90;;;;;;4995892;28;20181;-76
2023/04/29 02:41:57;;;;;;;28.17;21.97;;;14.10;99.90;;;;;;4995493;28;20724;-76
2023/04/29 02:44:26;;;;;;;27.97;23.27;;;14.10;99.90;;;;;;5012523;28;20185;-76
2023/04/29 02:46:52;;;;;;;28.50;21.53;;;14.10;99.90;;;;;;5011803;28;20212;-76
2023/04/29 02:49:17;;;;;;;29.77;21.77;;;14.10;99.90;;;;;;4995824;28;20581;-75
2023/04/29 02:51:43;;;;;;;29.27;20.50;;;14.00;99.90;;;;;;5011461;28;20182;-75
2023/04/29 02:54:10;;;;;;;30.77;21.97;;;14.00;99.90;;;;;;4995791;28;20185;-76
2023/04/29 02:56:36;;;;;;;28.40;22.37;;;14.00;99.90;;;;;;4995158;28;20577;-76
2023/04/29 02:59:02;;;;;;;32.87;24.90;;;14.00;99.90;;;;;;4994951;28;20640;-76
2023/04/29 03:01:28;;;;;;;30.20;22.23;;;13.90;99.90;;;;;;5023008;28;21127;-75
2023/04/29 03:03:57;;;;;;;29.67;22.73;;;13.90;99.90;;;;;;5014815;28;20182;-73
2023/04/29 03:06:23;;;;;;;31.87;23.40;;;13.90;99.90;;;;;;5014734;28;20204;-73
2023/04/29 03:08:49;;;;;;;31.48;24.30;;;13.90;99.90;;;;;;5031135;28;20917;-73
2023/04/29 03:11:17;;;;;;;33.30;25.52;;;13.90;99.90;;;;;;5031288;28;20260;-73
2023/04/29 03:13:44;;;;;;;31.83;23.57;;;13.90;99.90;;;;;;5031004;28;20265;-73
2023/04/29 03:16:15;;;;;;;32.58;24.50;;;13.80;99.90;;;;;;5031125;28;20599;-73
2023/04/29 03:18:42;;;;;;;35.78;27.42;;;13.80;99.90;;;;;;5015055;28;20221;-73
2023/04/29 03:21:08;;;;;;;35.33;27.42;;;13.80;99.90;;;;;;4991294;28;20635;-73
2023/04/29 03:23:34;;;;;;;30.40;24.03;;;13.70;99.90;;;;;;5009802;28;20177;-73
2023/04/29 03:26:04;;;;;;;31.95;23.73;;;13.70;99.90;;;;;;5010864;28;20586;-74
2023/04/29 03:28:30;;;;;;;35.58;26.75;;;13.60;99.90;;;;;;5012376;28;20205;-73
2023/04/29 03:30:57;;;;;;;34.00;26.77;;;13.60;99.90;;;;;;5011160;28;20539;-74
2023/04/29 03:33:23;;;;;;;38.42;29.10;;;13.60;99.90;;;;;;5011240;28;20201;-73
2023/04/29 03:35:49;;;;;;;44.50;28.38;;;13.60;99.90;;;;;;4994302;28;20274;-74
2023/04/29 03:38:34;;;;;;;49.80;33.13;;;13.50;99.90;;;;;;4994734;28;20250;-74
2023/04/29 03:41:00;;;;;;;44.83;31.27;;;13.50;99.90;;;;;;5010900;28;20265;-74
2023/04/29 03:43:26;;;;;;;43.15;27.35;;;13.50;99.90;;;;;;5012333;28;20162;-74
2023/04/29 03:45:52;;;;;;;34.73;24.00;;;13.40;99.90;;;;;;4994034;28;20166;-74
2023/04/29 03:48:21;;;;;;;36.33;23.52;;;13.40;99.90;;;;;;4994638;28;20264;-74
2023/04/29 03:50:47;;;;;;;42.70;28.50;;;13.30;99.90;;;;;;5010390;28;20178;-74
2023/04/29 03:53:13;;;;;;;33.93;21.90;;;13.30;99.90;;;;;;4994385;28;20225;-74
2023/04/29 03:55:39;;;;;;;36.92;25.15;;;13.20;99.90;;;;;;5010506;28;20592;-74
2023/04/29 03:58:05;;;;;;;43.58;26.73;;;13.20;99.90;;;;;;4994223;28;20213;-74
2023/04/29 04:00:31;;;;;;;44.97;26.90;;;13.10;99.90;;;;;;5010826;28;20166;-74
2023/04/29 04:03:00;;;;;;;42.42;28.10;;;13.10;99.90;;;;;;4978017;28;20178;-74
2023/04/29 04:05:27;;;;;;;44.65;26.90;;;13.00;99.90;;;;;;4994423;28;20634;-74
2023/04/29 04:07:59;;;;;;;44.13;26.40;;;13.00;99.90;;;;;;5010493;28;20201;-74
2023/04/29 04:10:45;;;;;;;37.08;23.45;;;12.90;99.90;;;;;;5003540;28;20182;-74
2023/04/29 04:13:28;;;;;;;36.63;23.75;;;12.90;99.90;;;;;;4993349;28;20176;-74
2023/04/29 04:15:54;;;;;;;39.28;24.25;;;12.80;99.90;;;;;;5010353;28;20264;-74
2023/04/29 04:18:20;;;;;;;32.40;22.03;;;12.80;99.90;;;;;;4993259;28;20300;-74
2023/04/29 04:20:46;;;;;;;39.60;23.40;;;12.80;99.90;;;;;;4993761;28;20236;-74
2023/04/29 04:23:12;;;;;;;40.67;25.85;;;12.80;99.90;;;;;;4993512;28;20586;-74
2023/04/29 04:25:43;;;;;;;40.10;23.40;;;12.70;99.90;;;;;;4977790;28;20627;-74
2023/04/29 04:28:38;;;;;;;39.13;22.40;;;12.70;99.90;;;;;;5011249;28;20256;-74
2023/04/29 04:31:14;;;;;;;39.50;23.95;;;12.60;99.90;;;;;;4993885;28;20201;-74
2023/04/29 04:33:40;;;;;;;42.28;24.85;;;12.60;99.90;;;;;;5009951;28;20189;-74
2023/04/29 04:36:06;;;;;;;34.20;22.33;;;12.60;99.90;;;;;;4993837;28;20174;-74
2023/04/29 04:38:33;;;;;;;36.42;23.73;;;12.60;99.90;;;;;;4993323;28;20244;-74
2023/04/29 04:41:01;;;;;;;32.95;22.85;;;12.50;99.90;;;;;;4993425;28;20174;-74
2023/04/29 04:43:33;;;;;;;33.13;23.05;;;12.60;99.90;;;;;;4995009;28;20536;-74
2023/04/29 04:46:09;;;;;;;27.52;19.98;;;12.50;99.90;;;;;;5009696;28;20178;-73
2023/04/29 04:48:40;;;;;;;32.22;21.27;;;12.50;99.90;;;;;;4978321;28;20197;-73
2023/04/29 04:51:09;;;;;;;28.33;19.23;;;12.50;99.90;;;;;;4993209;28;20182;-72
2023/04/29 04:53:35;;;;;;;32.40;21.45;;;12.60;99.90;;;;;;4994140;28;20182;-72
2023/04/29 04:56:06;;;;;;;34.13;23.75;;;12.60;99.90;;;;;;4994100;28;20174;-73
2023/04/29 04:58:32;;;;;;;30.38;22.60;;;12.60;99.90;;;;;;5009624;28;20301;-74
2023/04/29 05:00:58;;;;;;;31.52;21.27;;;12.60;99.90;;;;;;5010898;28;20573;-73
2023/04/29 05:03:24;;;;;;;29.88;19.83;;;12.50;99.90;;;;;;4993682;28;20236;-73
2023/04/29 05:05:57;;;;;;;31.63;21.50;;;12.50;99.90;;;;;;4992968;28;20174;-73
2023/04/29 05:08:24;;;;;;;32.88;21.23;;;12.50;99.90;;;;;;4993790;28;20308;-74
2023/04/29 05:10:52;;;;;;;35.10;22.83;;;12.50;99.90;;;;;;5009140;28;20190;-74
2023/04/29 05:13:19;;;;;;;31.88;20.75;;;12.50;99.90;;;;;;4992877;28;20681;-74
2023/04/29 05:15:45;;;;;;;31.80;20.50;;;12.50;99.90;;;;;;5009742;28;20186;-73
2023/04/29 05:18:12;;;;;;;29.55;21.17;;;12.50;99.90;;;;;;5009104;28;20645;-73
2023/04/29 05:20:40;;;;;;;27.40;18.90;;;12.50;99.90;;;;;;5009574;28;20166;-73
2023/04/29 05:23:06;;;;;;;26.13;18.67;;;12.50;99.90;;;;;;5009264;28;20224;-73
2023/04/29 05:25:37;;;;;;;25.83;17.35;;;12.40;99.90;;;;;;5009642;28;20588;-73
2023/04/29 05:28:03;;;;;;;19.93;15.43;;;12.40;99.90;;;;;;4992798;28;20203;-73
2023/04/29 05:30:31;;;;;;;26.48;18.33;;;12.50;99.90;;;;;;4993145;28;20597;-73
2023/04/29 05:32:57;;;;;;;23.67;17.30;;;12.50;99.90;;;;;;4992841;28;20205;-73
2023/04/29 05:35:24;;;;;;;23.50;15.97;;;12.50;99.90;;;;;;4993260;28;20185;-73
2023/04/29 05:37:50;;;;;;;23.10;16.33;;;12.50;99.90;;;;;;4992332;28;20332;-73
2023/04/29 05:40:30;;;;;;;23.67;16.58;;;12.50;99.90;;;;;;4993168;28;20170;-74
2023/04/29 05:43:14;;;;;;;22.88;15.25;;;12.50;99.90;;;;;;4992730;28;20175;-74
2023/04/29 05:45:39;;;;;;;24.87;17.70;;;12.50;99.90;;;;;;5024162;23;20639;-72
2023/04/29 05:48:05;;;;;;;25.93;17.27;;;12.60;99.90;;;;;;5004376;28;20170;-72
2023/04/29 05:50:31;;;;;;;19.00;14.90;;;12.60;99.90;;;;;;5012495;28;20178;-73
2023/04/29 05:52:57;;;;;;;22.67;16.50;;;12.60;99.90;;;;;;5013441;28;20603;-72
2023/04/29 05:55:24;;;;;;;22.13;15.73;;;12.60;99.90;;;;;;5032427;28;20211;-72
2023/04/29 05:57:50;;;;;;;19.73;15.17;;;12.60;99.90;;;;;;5016062;28;20194;-73
2023/04/29 06:00:16;;;;;;;18.98;13.77;;;12.70;99.90;;;;;;5015962;28;20572;-73
2023/04/29 06:02:44;;;;;;;19.45;13.48;;;12.70;99.90;;;;;;5016016;28;20165;-73
2023/04/29 06:05:11;;;;;;;18.02;13.00;;;12.70;99.90;;;;;;5015671;28;20190;-72
2023/04/29 06:08:04;;;;;;;16.23;13.23;;;12.70;99.90;;;;;;5013761;28;20178;-73
2023/04/29 06:10:41;;;;;;;13.88;11.52;;;12.70;99.90;;;;;;5012498;28;20176;-72
2023/04/29 06:13:06;;;;;;;15.90;11.10;;;12.80;99.90;;;;;;4996135;28;20229;-73
2023/04/29 06:15:33;;;;;;;14.30;11.07;;;12.80;99.90;;;;;;5012107;28;20233;-73
2023/04/29 06:17:58;;;;;;;14.30;11.30;;;12.80;99.90;;;;;;4980484;28;20229;-76
2023/04/29 06:20:24;;;;;;;14.70;10.73;;;12.80;99.90;;;;;;5012859;28;20170;-76
2023/04/29 06:22:50;;;;;;;17.00;11.50;;;12.90;99.90;;;;;;4995902;28;20179;-76
2023/04/29 06:25:16;;;;;;;19.27;13.93;;;12.90;99.90;;;;;;5012551;28;20453;-77
2023/04/29 06:27:49;;;;;;;15.73;12.85;;;12.90;99.90;;;;;;5011554;28;20232;-77
2023/04/29 06:30:18;;;;;;;15.57;12.50;;;12.90;99.90;;;;;;5012603;28;20174;-75
2023/04/29 06:32:44;;;;;;;16.80;12.80;;;12.90;99.90;;;;;;5011979;28;20700;-76
2023/04/29 06:35:10;;;;;;;12.77;10.53;;;12.90;99.90;;;;;;5012322;28;20281;-76
2023/04/29 06:38:08;;;;;;;16.67;12.98;;;13.00;99.90;;;;;;4999572;28;20649;-77
2023/04/29 06:40:42;;;;;;;15.75;11.48;;;13.00;99.90;;;;;;5012432;28;20170;-77
2023/04/29 06:43:30;;;;;;;17.42;13.75;;;13.00;99.90;;;;;;5011891;28;20234;-76
2023/04/29 06:46:26;;;;;;;21.05;14.10;;;13.00;99.90;;;;;;5011952;28;20305;-77
2023/04/29 06:49:02;;;;;;;15.50;12.38;;;13.10;99.90;;;;;;5011935;28;20638;-77
2023/04/29 06:51:28;;;;;;;17.45;14.27;;;13.10;99.90;;;;;;4995526;28;20178;-76
2023/04/29 06:53:54;;;;;;;14.40;11.20;;;13.10;99.90;;;;;;5011840;28;20718;-77
2023/04/29 06:56:20;;;;;;;16.33;12.93;;;13.20;99.90;;;;;;5028177;28;20190;-76
2023/04/29 06:58:46;;;;;;;15.27;12.50;;;13.20;99.90;;;;;;5011554;28;20624;-75
2023/04/29 07:01:12;;;;;;;14.00;11.90;;;13.20;99.90;;;;;;5011934;28;20576;-76
2023/04/29 07:03:38;;;;;;;15.57;12.68;;;13.30;99.90;;;;;;4992861;28;21126;-77
2023/04/29 07:06:05;;;;;;;18.13;13.30;;;13.30;99.90;;;;;;5011478;28;20198;-76
2023/04/29 07:08:31;;;;;;;14.40;12.20;;;13.40;99.90;;;;;;5011728;28;20178;-76
2023/04/29 07:10:57;;;;;;;14.97;12.97;;;13.40;99.90;;;;;;4995013;28;21181;-76
2023/04/29 07:13:24;;;;;;;15.32;12.43;;;13.50;99.90;;;;;;4992689;28;20179;-76
2023/04/29 07:15:50;;;;;;;16.90;13.10;;;13.60;99.90;;;;;;5010979;28;20202;-76
2023/04/29 07:18:16;;;;;;;14.80;12.10;;;13.70;99.90;;;;;;4995467;28;20210;-76
2023/04/29 07:20:43;;;;;;;17.20;13.43;;;13.80;99.90;;;;;;5012450;28;20170;-77
2023/04/29 07:23:09;;;;;;;18.95;12.70;;;13.90;99.90;;;;;;5008499;28;20167;-77
2023/04/29 07:25:35;;;;;;;18.90;13.50;;;14.00;99.90;;;;;;4991126;28;20202;-76
2023/04/29 07:28:03;;;;;;;17.47;11.37;;;14.00;99.90;;;;;;4975671;28;20589;-77
2023/04/29 07:30:29;;;;;;;13.83;12.23;;;14.10;99.90;;;;;;4992780;28;20951;-76
2023/04/29 07:32:55;;;;;;;14.43;11.43;;;14.20;99.90;;;;;;4991701;28;20586;-77
2023/04/29 07:35:21;;;;;;;16.80;13.03;;;14.20;99.90;;;;;;4991553;28;20202;-77
2023/04/29 07:37:47;;;;;;;16.00;12.60;;;14.30;99.90;;;;;;4990930;28;21204;-77
2023/04/29 07:40:12;;;;;;;15.30;13.70;;;14.30;99.90;;;;;;4991826;28;21163;-76
2023/04/29 07:42:38;;;;;;;14.67;11.80;;;14.40;99.90;;;;;;5002692;28;20638;-76
2023/04/29 07:45:06;;;;;;;17.20;13.07;;;14.40;99.90;;;;;;4994118;28;20292;-76
2023/04/29 07:47:32;;;;;;;14.07;11.30;;;14.40;99.90;;;;;;5009509;28;21183;-76
2023/04/29 07:49:59;;;;;;;16.33;13.30;;;14.40;99.90;;;;;;4993357;28;20647;-76
2023/04/29 07:52:25;;;;;;;12.97;11.60;;;14.40;99.90;;;;;;5009383;28;20589;-77
2023/04/29 07:54:51;;;;;;;14.57;12.17;;;14.40;99.90;;;;;;5009933;28;20261;-76
2023/04/29 07:57:17;;;;;;;12.20;9.87;;;14.40;99.90;;;;;;5010460;28;20719;-77
2023/04/29 07:59:42;;;;;;;11.67;10.17;;;14.40;99.90;;;;;;4974428;28;20179;-77
2023/04/29 08:02:08;;;;;;;11.10;9.97;;;14.40;99.90;;;;;;5010368;28;20189;-77
2023/04/29 08:04:37;;;;;;;12.20;9.50;;;14.40;99.90;;;;;;4993968;28;20327;-75
2023/04/29 08:07:08;;;;;;;16.10;10.97;;;14.40;99.90;;;;;;4994142;28;20190;-74
2023/04/29 08:09:35;;;;;;;14.43;11.20;;;14.40;99.90;;;;;;5010390;28;21066;-75
2023/04/29 08:12:02;;;;;;;13.77;12.27;;;14.40;99.90;;;;;;4994269;28;20577;-75
2023/04/29 08:14:28;;;;;;;14.87;11.37;;;14.30;99.90;;;;;;5009873;28;20639;-75
2023/04/29 08:16:54;;;;;;;12.67;10.20;;;14.30;99.90;;;;;;4992782;28;20201;-75
2023/04/29 08:19:20;;;;;;;15.93;11.00;;;14.30;99.90;;;;;;5009549;28;20202;-75
2023/04/29 08:21:47;;;;;;;10.87;8.80;;;14.30;99.90;;;;;;5009246;28;20603;-75
2023/04/29 08:24:13;;;;;;;12.10;10.47;;;14.20;99.90;;;;;;4993505;28;20673;-75
2023/04/29 08:26:41;;;;;;;14.13;10.50;;;14.20;99.90;;;;;;5008514;28;20190;-75
2023/04/29 08:29:08;;;;;;;10.60;9.30;;;14.20;99.90;;;;;;5008758;28;21197;-76
2023/04/29 08:31:33;;;;;;;11.00;9.53;;;14.30;99.90;;;;;;5010165;28;20589;-75
2023/04/29 08:34:00;;;;;;;9.50;7.97;;;14.30;99.90;;;;;;5010073;28;20948;-75
2023/04/29 08:36:28;;;;;;;10.47;9.33;;;14.40;99.90;;;;;;5009512;28;20561;-75
2023/04/29 08:38:55;;;;;;;10.13;9.03;;;14.60;99.90;;;;;;5011369;28;20633;-74
2023/04/29 08:41:20;;;;;;;13.20;10.00;;;14.60;99.90;;;;;;5009465;28;21206;-75
2023/04/29 08:43:46;;;;;;;11.83;9.70;;;14.70;99.90;;;;;;5011143;28;20586;-77
2023/04/29 08:46:13;;;;;;;11.13;9.23;;;14.80;99.90;;;;;;5010841;28;20574;-75
2023/04/29 08:48:39;;;;;;;10.93;9.83;;;14.80;99.90;;;;;;5010004;28;20597;-76
2023/04/29 08:51:06;;;;;;;11.00;9.43;;;14.80;99.90;;;;;;5011099;28;20941;-75
2023/04/29 08:53:31;;;;;;;10.40;9.07;;;14.90;99.90;;;;;;5011350;28;20664;-75
2023/04/29 08:56:02;;;;;;;9.13;7.87;;;15.00;99.90;;;;;;4998555;28;21245;-75
2023/04/29 08:58:31;;;;;;;10.43;8.83;;;15.10;99.90;;;;;;5003195;28;20558;-75
2023/04/29 09:00:57;;;;;;;9.87;6.77;;;15.30;99.90;;;;;;5009831;28;21144;-74
2023/04/29 09:03:31;;;;;;;10.30;9.20;;;15.40;99.90;;;;;;5009327;28;20580;-74
2023/04/29 09:06:00;;;;;;;9.60;7.87;;;15.60;99.90;;;;;;5009735;28;20198;-75
2023/04/29 09:08:27;;;;;;;9.70;8.53;;;15.70;99.90;;;;;;5010772;28;20578;-75
2023/04/29 09:10:53;;;;;;;10.87;8.37;;;15.90;99.90;;;;;;5011065;28;20585;-74
2023/04/29 09:13:24;;;;;;;14.60;8.87;;;16.00;99.90;;;;;;5010800;28;20569;-74
2023/04/29 09:15:50;;;;;;;10.60;8.63;;;16.00;99.90;;;;;;5016919;28;20928;-75
2023/04/29 09:18:42;;;;;;;9.60;8.40;;;16.00;99.90;;;;;;5021907;28;20628;-75
2023/04/29 09:21:22;;;;;;;9.07;7.80;;;16.00;99.90;;;;;;5024650;28;20197;-75
2023/04/29 09:23:50;;;;;;;10.17;8.37;;;16.00;99.90;;;;;;4991116;28;20606;-75
2023/04/29 09:26:17;;;;;;;12.23;9.27;;;16.00;99.90;;;;;;4990933;28;20660;-75
2023/04/29 09:28:43;;;;;;;12.13;10.30;;;16.00;99.90;;;;;;4993633;28;20665;-75
2023/04/29 09:31:13;;;;;;;11.13;9.17;;;16.00;99.90;;;;;;4977622;28;20752;-75
2023/04/29 09:33:57;;;;;;;11.47;9.03;;;16.00;99.90;;;;;;4993434;28;20586;-75
2023/04/29 09:36:47;;;;;;;9.97;8.63;;;16.00;99.90;;;;;;4993554;28;20614;-75
2023/04/29 09:39:15;;;;;;;11.90;9.13;;;16.00;99.90;;;;;;4993272;28;20626;-75
2023/04/29 09:41:51;;;;;;;10.50;9.30;;;16.00;99.90;;;;;;4993619;28;20624;-75
2023/04/29 09:44:17;;;;;;;8.20;6.80;;;15.90;99.90;;;;;;4994518;28;20586;-75
2023/04/29 09:46:56;;;;;;;10.17;8.70;;;15.90;99.90;;;;;;4994334;28;21011;-75
2023/04/29 09:49:27;;;;;;;9.40;8.37;;;15.80;99.90;;;;;;4993628;28;20581;-75
2023/04/29 09:51:54;;;;;;;10.07;8.03;;;15.80;99.90;;;;;;5004732;28;20620;-75
2023/04/29 09:54:22;;;;;;;11.13;9.93;;;15.70;99.90;;;;;;5014342;28;20583;-75
2023/04/29 09:56:50;;;;;;;8.87;7.87;;;15.70;99.90;;;;;;5012278;28;20648;-75
2023/04/29 09:59:17;;;;;;;10.47;9.40;;;15.60;99.90;;;;;;5013130;28;20640;-74
2023/04/29 10:01:43;;;;;;;13.00;9.33;;;15.60;99.90;;;;;;5013665;28;20583;-74
2023/04/29 10:04:10;;;;;;;10.67;8.93;;;15.50;99.90;;;;;;5014325;28;20664;-74
2023/04/29 10:06:39;;;;;;;10.23;8.13;;;15.50;99.90;;;;;;5013329;28;20204;-75
2023/04/29 10:09:07;;;;;;;14.53;11.60;;;15.50;99.90;;;;;;4996720;28;20613;-75
2023/04/29 10:11:35;;;;;;;19.53;13.40;;;15.50;99.90;;;;;;5013524;28;20611;-75
2023/04/29 10:14:04;;;;;;;12.80;11.10;;;15.40;99.90;;;;;;5013771;28;20613;-76
2023/04/29 10:16:37;;;;;;;14.57;12.37;;;15.40;99.90;;;;;;5013108;28;20651;-75
2023/04/29 10:19:06;;;;;;;15.07;12.53;;;15.30;99.90;;;;;;5013945;28;20628;-75
2023/04/29 10:21:32;;;;;;;14.80;11.70;;;15.20;99.90;;;;;;5011874;28;20589;-76
2023/04/29 10:24:00;;;;;;;12.33;10.93;;;15.10;99.90;;;;;;4996133;28;20577;-75
2023/04/29 10:26:28;;;;;;;11.43;10.23;;;15.10;99.90;;;;;;5012058;28;20612;-74
2023/04/29 10:28:58;;;;;;;13.23;11.23;;;15.00;99.90;;;;;;5012065;28;20651;-75
2023/04/29 10:31:31;;;;;;;11.50;10.30;;;15.00;99.90;;;;;;5013610;28;20627;-74
2023/04/29 10:34:00;;;;;;;12.50;10.87;;;15.00;99.90;;;;;;4995972;28;20616;-75
2023/04/29 10:36:30;;;;;;;13.33;9.70;;;15.00;99.90;;;;;;5013300;28;20596;-74
2023/04/29 10:39:02;;;;;;;14.03;11.23;;;15.00;99.90;;;;;;5012544;28;20643;-74
2023/04/29 10:41:44;;;;;;;12.40;9.03;;;14.90;99.90;;;;;;5012264;28;20604;-74
2023/04/29 10:44:10;;;;;;;10.50;9.00;;;14.90;99.90;;;;;;5013114;28;20688;-75
2023/04/29 10:46:36;;;;;;;10.53;9.50;;;14.90;99.90;;;;;;5011742;28;20660;-74
2023/04/29 10:49:05;;;;;;;11.48;9.52;;;14.90;99.90;;;;;;5011488;28;20193;-73
2023/04/29 10:51:44;;;;;;;11.20;10.00;;;14.80;99.90;;;;;;4992326;28;20183;-74
2023/04/29 10:54:19;;;;;;;12.67;10.60;;;14.80;99.90;;;;;;4993587;28;20681;-74
2023/04/29 10:56:53;;;;;;;15.90;13.73;;;14.80;99.90;;;;;;4992452;28;20606;-74
2023/04/29 10:59:41;;;;;;;18.80;15.13;;;14.80;99.90;;;;;;4993253;28;20626;-75
2023/04/29 11:02:09;;;;;;;25.30;21.07;;;14.80;99.90;;;;;;4993492;28;20582;-75
2023/04/29 11:05:08;;;;;;;24.17;20.00;;;14.80;99.90;;;;;;4993335;28;21123;-75
2023/04/29 11:07:34;;;;;;;25.30;20.97;;;14.70;99.90;;;;;;4999963;28;20582;-75
2023/04/29 11:10:01;;;;;;;22.70;20.30;;;14.80;99.90;;;;;;5012474;28;20586;-75
2023/04/29 11:12:27;;;;;;;24.70;20.33;;;14.80;99.90;;;;;;5011688;28;20584;-76
2023/04/29 11:15:01;;;;;;;23.33;18.77;;;14.80;99.90;;;;;;4994852;28;20617;-75
2023/04/29 11:17:35;;;;;;;24.50;18.77;;;14.80;99.90;;;;;;5011271;28;20656;-75
2023/04/29 11:20:01;;;;;;;25.13;21.37;;;14.90;99.90;;;;;;5012456;28;20590;-75
2023/04/29 11:22:32;;;;;;;28.50;22.03;;;14.80;99.90;;;;;;5010394;28;21012;-75
2023/04/29 11:25:02;;;;;;;27.40;23.17;;;14.80;99.90;;;;;;5012428;28;20941;-74
2023/04/29 11:27:37;;;;;;;30.33;23.67;;;14.80;99.90;;;;;;5011873;28;20581;-75
2023/04/29 11:30:05;;;;;;;37.60;24.00;;;14.80;99.90;;;;;;5011529;28;20592;-75
2023/04/29 11:32:36;;;;;;;25.23;22.27;;;14.80;99.90;;;;;;5027226;28;20680;-75
2023/04/29 11:35:11;;;;;;;26.90;19.30;;;14.80;99.90;;;;;;5027890;28;20581;-75
2023/04/29 11:37:38;;;;;;;21.63;17.70;;;14.80;99.90;;;;;;5011753;28;20656;-74
2023/04/29 11:40:05;;;;;;;32.53;24.77;;;14.80;99.90;;;;;;5011157;28;20577;-74
2023/04/29 11:42:44;;;;;;;31.27;24.27;;;14.80;99.90;;;;;;5010507;28;21164;-74
2023/04/29 11:45:10;;;;;;;25.00;21.40;;;14.80;99.90;;;;;;5013334;28;20632;-74
2023/04/29 11:47:37;;;;;;;40.10;29.53;;;14.80;99.90;;;;;;4994385;28;21185;-82
2023/04/29 11:50:09;;;;;;;38.63;30.00;;;14.80;99.90;;;;;;5009386;28;21056;-82
2023/04/29 11:52:40;;;;;;;39.63;31.63;;;14.90;99.90;;;;;;5011426;28;20686;-81
2023/04/29 11:55:10;;;;;;;39.97;32.37;;;14.90;99.90;;;;;;5008641;28;20585;-81
2023/04/29 11:57:38;;;;;;;38.50;32.30;;;15.00;99.90;;;;;;4995055;28;20617;-83
2023/04/29 12:00:04;;;;;;;41.03;33.20;;;15.10;99.90;;;;;;5014210;28;20610;-82
2023/04/29 12:02:33;;;;;;;43.53;35.10;;;15.10;99.90;;;;;;4999880;28;20587;-80
2023/04/29 12:05:04;;;;;;;43.70;36.33;;;15.20;99.90;;;;;;5016067;28;20578;-80
2023/04/29 12:07:30;;;;;;;46.97;35.97;;;15.30;99.90;;;;;;4981078;28;20594;-81
2023/04/29 12:09:56;;;;;;;44.53;36.50;;;15.30;99.90;;;;;;5008085;28;20632;-81
2023/04/29 12:12:22;;;;;;;39.47;35.20;;;15.40;99.90;;;;;;4992537;28;20605;-81
2023/04/29 12:14:49;;;;;;;38.87;31.67;;;15.50;99.90;;;;;;4992618;28;20606;-81
2023/04/29 12:17:16;;;;;;;36.30;32.03;;;15.60;99.90;;;;;;5010512;28;20577;-80
2023/04/29 12:19:43;;;;;;;42.30;33.27;;;15.70;99.90;;;;;;5010684;28;20588;-81
2023/04/29 12:22:09;;;;;;;35.70;29.87;;;15.80;99.90;;;;;;5010835;28;20945;-81
2023/04/29 12:24:37;;;;;;;33.70;28.30;;;15.80;99.90;;;;;;5011723;28;20964;-81
2023/04/29 12:27:06;;;;;;;35.00;31.23;;;15.90;99.90;;;;;;5010707;28;20617;-82
2023/04/29 12:29:32;;;;;;;38.53;30.53;;;15.90;99.90;;;;;;5010779;28;20938;-82
2023/04/29 12:31:58;;;;;;;34.17;27.83;;;16.00;99.90;;;;;;5010637;28;20578;-82
2023/04/29 12:34:28;;;;;;;36.03;30.13;;;16.10;99.90;;;;;;5012374;28;20181;-83
2023/04/29 12:36:56;;;;;;;32.73;29.47;;;16.20;99.90;;;;;;5011270;28;20648;-82
2023/04/29 12:39:22;;;;;;;35.43;31.60;;;16.30;99.90;;;;;;5010219;28;20631;-80
2023/04/29 12:41:48;;;;;;;31.80;28.40;;;16.40;99.90;;;;;;5009958;28;20929;-80
2023/04/29 12:44:14;;;;;;;27.67;24.70;;;16.60;99.90;;;;;;5010618;28;20924;-80